Česky Dansk Deutsch English Español Suomi Français Magyar Italiano Nederlands norsk Polski Português svenska Türkçe

 

Het Weer

Aurillac (Frankrijk)

10:00, 16 augustus 2016 (GMT)

NWNNE
WE
SWSSE
Home            
Aurillac Rodez Brive Cassagnes-Begonhes Mende / Brenoux Le Puy Albi Clermont-Ferrand Perigueux Limoges Montlucon / Gueret Bergerac Vichy St-Etienne Boutheon Toulouse / Blagnac Agen Toulouse / Francazal Montelimar Carcassonne Beziers / Vias Montpellier Nimes / Courbessac Auch

Om een weerknop op uw website of weblog te plaatsen, copieer onderstaande code en plak die in uw pagina. In het eerste vakje staat HTML-code, in het tweede vakje UBB-code.


Add to Google

Details

Wind speed:2 bf, 4 kn, 2.1 m/s, 4.6 miles/h, 7.4 km/h
Wind direction:SSE, 150° - NW, 320°
Visibility:Greater than 10000 m, 10 km, 32800 ft, 6.2 miles
Clouds:CAVOC
Temperature:27°C, 81°F
Gefühlte Temperatur:27°C, 81°F
Dew-point:14°C, 57°F
Atmospheric pressure:1018 hPa, 763.6 mmHg, 30.06 inHg, 1.005 atm
Relative humidity:44.8 %
METAR:LFLW 161000Z AUTO 24004KT 150V320 CAVOK 27/14 Q1018 BECMG SCT060TCU

Snelkoppelingen

Actuele weersinformatie van de hele wereld. Voeg locaties toe met het plus (+) symbool. Deze snelkoppelingen kunnen worden toegevoegd aan Google.

Lid van de Technetium groep

website free tracking
StatCounter NetStat W3C Validator

05-07-2022 03:05:31
astro.technetium.be money.technetium.be phote.technetium.be tafeltennistafel.technetium.be www.ligfiets.net